createdAt,value
2022-08-05T00:00:46.303Z,34.49
2022-08-05T00:02:07.652Z,34.94
2022-08-05T00:03:24.966Z,35.23
2022-08-05T00:04:33.364Z,35.51
2022-08-05T00:06:06.404Z,35.60
2022-08-05T00:07:26.995Z,35.82
2022-08-05T00:08:48.989Z,36.10
2022-08-05T00:10:01.689Z,36.29
2022-08-05T00:11:20.646Z,36.36
2022-08-05T00:12:55.922Z,36.54
2022-08-05T00:14:12.802Z,36.75
2022-08-05T00:15:55.999Z,36.80
2022-08-05T00:17:02.966Z,36.68
2022-08-05T00:18:21.686Z,37.04
2022-08-05T00:19:45.873Z,37.06
2022-08-05T00:21:04.791Z,37.08
2022-08-05T00:22:18.000Z,37.53
2022-08-05T00:23:44.183Z,37.89
2022-08-05T00:24:56.849Z,38.12
2022-08-05T00:26:05.874Z,38.21
2022-08-05T00:27:17.156Z,38.55
2022-08-05T00:28:29.813Z,38.67
2022-08-05T00:29:38.461Z,39.02
2022-08-05T00:30:46.667Z,39.24
2022-08-05T00:32:10.642Z,39.40
2022-08-05T00:34:56.930Z,39.41
2022-08-05T00:35:06.673Z,39.57
2022-08-05T00:37:11.496Z,39.85
2022-08-05T00:37:54.659Z,40.06
2022-08-05T00:39:03.339Z,39.90
2022-08-05T00:40:14.233Z,39.79
2022-08-05T00:41:51.606Z,39.80
2022-08-05T00:43:02.802Z,40.05
2022-08-05T00:44:17.802Z,40.06
2022-08-05T00:45:37.909Z,40.04
2022-08-05T00:46:54.165Z,40.32
2022-08-05T00:48:15.062Z,40.31
2022-08-05T00:49:26.769Z,40.25
2022-08-05T00:50:46.108Z,40.22
2022-08-05T00:51:55.567Z,40.29
2022-08-05T00:53:09.487Z,40.33
2022-08-05T00:54:35.080Z,40.64
2022-08-05T00:55:43.768Z,40.44
2022-08-05T00:56:52.678Z,40.36
2022-08-05T00:58:00.797Z,40.40
2022-08-05T00:59:10.081Z,40.53
2022-08-05T01:00:17.678Z,40.60
2022-08-05T01:01:42.892Z,40.36
2022-08-05T01:02:59.850Z,40.37
2022-08-05T01:04:13.686Z,40.39
2022-08-05T01:05:23.968Z,40.38
2022-08-05T01:06:38.207Z,40.40
2022-08-05T01:08:39.202Z,40.43
2022-08-05T01:09:20.094Z,40.61
2022-08-05T01:11:05.684Z,40.81
2022-08-05T01:12:19.182Z,40.85
2022-08-05T01:13:58.421Z,40.98
2022-08-05T01:15:18.703Z,40.91
2022-08-05T01:17:08.587Z,40.84
2022-08-05T01:18:18.857Z,40.87
2022-08-05T01:20:01.366Z,40.85
2022-08-05T01:21:23.087Z,40.81
2022-08-05T01:23:15.346Z,41.00
2022-08-05T01:24:50.767Z,41.25
2022-08-05T01:26:34.752Z,41.04
2022-08-05T01:28:22.233Z,41.12
2022-08-05T01:29:34.958Z,41.36
2022-08-05T01:30:46.561Z,41.41
2022-08-05T01:32:05.542Z,41.50
2022-08-05T01:33:21.460Z,41.58
2022-08-05T01:34:47.915Z,41.63
2022-08-05T01:35:59.093Z,41.81
2022-08-05T01:37:24.475Z,41.93
2022-08-05T01:38:35.100Z,42.17
2022-08-05T01:39:47.320Z,42.19
2022-08-05T01:40:56.356Z,42.35
2022-08-05T01:42:04.939Z,42.43
2022-08-05T01:43:22.056Z,42.62
2022-08-05T01:44:35.834Z,42.95
2022-08-05T01:45:45.253Z,43.00
2022-08-05T01:47:07.479Z,43.11
2022-08-05T01:48:20.554Z,43.01
2022-08-05T01:50:00.372Z,43.07
2022-08-05T01:51:12.370Z,43.08
2022-08-05T01:52:25.101Z,43.15
2022-08-05T01:53:57.958Z,43.24
2022-08-05T01:55:11.081Z,43.58
2022-08-05T01:58:09.265Z,43.59
2022-08-05T01:58:29.124Z,43.63
2022-08-05T01:59:24.009Z,43.88
2022-08-05T02:00:41.285Z,43.90
2022-08-05T02:01:54.844Z,43.99
2022-08-05T02:03:41.037Z,44.05
2022-08-05T02:04:50.044Z,44.18
2022-08-05T02:06:01.048Z,44.17
2022-08-05T02:07:21.687Z,44.31
2022-08-05T02:08:32.370Z,44.15
2022-08-05T02:09:42.268Z,44.10
2022-08-05T02:11:01.860Z,44.23
2022-08-05T02:12:14.703Z,44.17
2022-08-05T02:13:36.581Z,44.17
2022-08-05T02:15:33.598Z,44.44
2022-08-05T02:16:54.871Z,44.72
2022-08-05T02:18:36.207Z,44.94
2022-08-05T02:19:47.746Z,45.11
2022-08-05T02:21:15.004Z,45.16
2022-08-05T02:22:35.464Z,45.47
2022-08-05T02:23:53.014Z,45.64
2022-08-05T02:25:20.661Z,45.78
2022-08-05T02:26:55.130Z,46.22
2022-08-05T02:28:08.968Z,46.30
2022-08-05T02:29:26.097Z,46.31
2022-08-05T02:30:57.335Z,46.51
2022-08-05T02:32:09.146Z,46.77
2022-08-05T02:33:36.028Z,46.75
2022-08-05T02:34:54.862Z,46.95
2022-08-05T02:36:05.260Z,46.97
2022-08-05T02:37:16.490Z,46.79
2022-08-05T02:38:26.958Z,46.88
2022-08-05T02:39:47.649Z,47.14
2022-08-05T02:41:06.295Z,47.17
2022-08-05T02:42:27.641Z,47.23
2022-08-05T02:44:02.254Z,47.14
2022-08-05T02:45:11.992Z,47.02
2022-08-05T02:46:27.634Z,46.97
2022-08-05T02:48:07.357Z,46.93
2022-08-05T02:49:07.266Z,46.96
2022-08-05T02:50:21.312Z,47.14
2022-08-05T02:52:04.005Z,47.16
2022-08-05T02:53:00.701Z,47.15
2022-08-05T02:54:08.412Z,47.27
2022-08-05T02:55:54.046Z,47.35
2022-08-05T02:56:49.946Z,47.45
2022-08-05T02:58:09.912Z,47.51
2022-08-05T02:59:30.748Z,47.64
2022-08-05T03:01:03.194Z,47.63
2022-08-05T03:02:12.052Z,47.62
2022-08-05T03:03:24.692Z,47.76
2022-08-05T03:04:35.325Z,47.81
2022-08-05T03:06:54.598Z,48.03
2022-08-05T03:07:17.595Z,48.01
2022-08-05T03:08:47.904Z,48.06
2022-08-05T03:10:02.328Z,48.11
2022-08-05T03:11:56.620Z,48.15
2022-08-05T03:14:08.167Z,48.49
2022-08-05T03:15:17.550Z,48.49
2022-08-05T03:16:27.127Z,48.51
2022-08-05T03:17:41.455Z,48.56
2022-08-05T03:18:50.475Z,48.70
2022-08-05T03:20:01.166Z,48.76
2022-08-05T03:21:14.609Z,48.79
2022-08-05T03:22:32.445Z,48.93
2022-08-05T03:23:46.243Z,49.01
2022-08-05T03:24:54.380Z,49.09
2022-08-05T03:26:31.700Z,49.18
2022-08-05T03:27:59.660Z,49.33
2022-08-05T03:29:12.687Z,49.76
2022-08-05T03:30:28.668Z,49.96
2022-08-05T03:31:56.868Z,49.90
2022-08-05T03:33:09.718Z,50.08
2022-08-05T03:34:18.416Z,50.25
2022-08-05T03:35:26.528Z,50.42
2022-08-05T03:36:38.604Z,50.38
2022-08-05T03:37:49.180Z,50.21
2022-08-05T03:39:19.940Z,50.52
2022-08-05T03:40:35.818Z,50.69
2022-08-05T03:41:45.272Z,50.60
2022-08-05T03:42:55.934Z,50.69
2022-08-05T03:44:11.673Z,50.84
2022-08-05T03:45:23.517Z,50.91
2022-08-05T03:46:36.455Z,50.82
2022-08-05T03:47:45.441Z,50.92
2022-08-05T03:48:55.199Z,51.10
2022-08-05T03:50:04.771Z,51.05
2022-08-05T03:52:49.113Z,51.10
2022-08-05T03:55:53.955Z,51.29
2022-08-05T03:56:05.294Z,51.35
2022-08-05T03:56:46.674Z,51.53
2022-08-05T03:57:56.132Z,51.43
2022-08-05T03:59:07.545Z,51.50
2022-08-05T04:00:17.520Z,51.56
2022-08-05T04:01:28.336Z,51.55
2022-08-05T04:02:52.271Z,51.51
2022-08-05T04:04:10.604Z,51.41
2022-08-05T04:05:23.214Z,51.44
2022-08-05T04:06:36.787Z,51.55
2022-08-05T04:07:53.525Z,51.43
2022-08-05T04:09:10.325Z,51.63
2022-08-05T04:10:19.778Z,51.74
2022-08-05T04:11:50.712Z,51.65
2022-08-05T04:13:03.411Z,51.91
2022-08-05T04:14:18.099Z,51.85
2022-08-05T04:15:27.796Z,51.89
2022-08-05T04:16:41.723Z,51.94
2022-08-05T04:17:56.339Z,51.98
2022-08-05T04:19:10.492Z,52.10
2022-08-05T04:20:26.382Z,52.00
2022-08-05T04:22:10.038Z,52.06
2022-08-05T04:23:07.497Z,51.89
2022-08-05T04:24:22.777Z,52.18
2022-08-05T04:25:56.693Z,52.13
2022-08-05T04:27:07.333Z,52.16
2022-08-05T04:28:17.447Z,52.27
2022-08-05T04:29:29.219Z,52.10
2022-08-05T04:30:42.965Z,52.06
2022-08-05T04:31:56.864Z,51.95
2022-08-05T04:33:07.234Z,52.01
2022-08-05T04:34:31.320Z,52.13
2022-08-05T04:36:15.581Z,52.06
2022-08-05T04:37:16.228Z,51.90
2022-08-05T04:38:39.714Z,51.76
2022-08-05T04:39:52.874Z,51.84
2022-08-05T04:41:08.154Z,51.98
2022-08-05T04:42:19.989Z,51.91
2022-08-05T04:43:35.853Z,51.79
2022-08-05T04:44:46.192Z,51.91
2022-08-05T04:45:55.815Z,51.76
2022-08-05T04:47:08.953Z,51.82
2022-08-05T04:48:27.827Z,51.70
2022-08-05T04:49:39.004Z,51.77
2022-08-05T04:51:11.019Z,52.01
2022-08-05T04:52:20.418Z,51.67
2022-08-05T04:53:33.683Z,51.77
2022-08-05T04:54:44.429Z,51.87
2022-08-05T04:56:33.028Z,51.96
2022-08-05T04:57:24.242Z,52.20
2022-08-05T04:58:38.815Z,52.27
2022-08-05T04:59:48.175Z,52.21
2022-08-05T05:00:55.763Z,52.32
2022-08-05T05:02:06.686Z,52.41
2022-08-05T05:03:20.241Z,52.43
2022-08-05T05:04:28.522Z,52.61
2022-08-05T05:06:39.104Z,52.65
2022-08-05T05:07:04.923Z,52.91
2022-08-05T05:08:26.703Z,53.06
2022-08-05T05:09:40.256Z,53.23
2022-08-05T05:10:56.005Z,53.40
2022-08-05T05:12:06.166Z,53.48
2022-08-05T05:13:18.741Z,53.62
2022-08-05T05:14:32.480Z,53.73
2022-08-05T05:15:57.806Z,53.96
2022-08-05T05:17:10.561Z,54.25
2022-08-05T05:18:28.355Z,54.33
2022-08-05T05:19:44.357Z,54.37
2022-08-05T05:20:58.519Z,54.50
2022-08-05T05:22:22.907Z,54.41
2022-08-05T05:23:39.228Z,54.59
2022-08-05T05:25:16.420Z,54.72
2022-08-05T05:26:32.798Z,54.85
2022-08-05T05:27:45.538Z,55.12
2022-08-05T05:28:58.180Z,55.20
2022-08-05T05:30:06.081Z,55.19
2022-08-05T05:31:24.521Z,55.15
2022-08-05T05:32:33.879Z,55.21
2022-08-05T05:33:59.806Z,55.19
2022-08-05T05:35:19.982Z,55.39
2022-08-05T05:36:31.157Z,55.46
2022-08-05T05:37:59.925Z,55.51
2022-08-05T05:39:11.024Z,55.54
2022-08-05T05:40:22.241Z,55.54
2022-08-05T05:41:40.739Z,55.62
2022-08-05T05:42:51.231Z,55.69
2022-08-05T05:44:00.880Z,55.73
2022-08-05T05:45:10.002Z,55.69
2022-08-05T05:46:26.196Z,55.91
2022-08-05T05:48:06.852Z,55.89
2022-08-05T05:49:06.496Z,55.90
2022-08-05T05:50:30.797Z,56.00
2022-08-05T05:51:50.697Z,56.19
2022-08-05T05:53:00.994Z,56.26
2022-08-05T05:54:08.629Z,56.45
2022-08-05T05:55:20.273Z,56.46
2022-08-05T05:56:34.745Z,56.44
2022-08-05T05:57:52.714Z,56.57
2022-08-05T05:59:03.504Z,56.50
2022-08-05T06:00:15.510Z,56.65
2022-08-05T06:01:23.721Z,56.72
2022-08-05T06:02:37.775Z,56.63
2022-08-05T06:04:00.684Z,56.66
2022-08-05T06:05:16.622Z,56.77
2022-08-05T06:06:25.002Z,57.01
2022-08-05T06:07:42.053Z,57.09
2022-08-05T06:09:09.441Z,57.18
2022-08-05T06:10:36.750Z,56.93
2022-08-05T06:12:01.492Z,57.29
2022-08-05T06:13:11.277Z,57.49
2022-08-05T06:14:23.578Z,57.52
2022-08-05T06:16:30.437Z,57.48
2022-08-05T06:17:24.309Z,57.35
2022-08-05T06:18:39.375Z,57.75
2022-08-05T06:19:56.678Z,57.72
2022-08-05T06:21:18.469Z,57.92
2022-08-05T06:22:35.815Z,57.77
2022-08-05T06:23:44.060Z,58.03
2022-08-05T06:24:52.170Z,58.05
2022-08-05T06:26:13.690Z,58.05
2022-08-05T06:28:11.073Z,58.02
2022-08-05T06:28:59.946Z,57.91
2022-08-05T06:30:20.087Z,57.86
2022-08-05T06:31:32.886Z,57.99
2022-08-05T06:32:41.339Z,58.15
2022-08-05T06:34:06.934Z,58.25
2022-08-05T06:36:03.776Z,58.42
2022-08-05T06:36:56.983Z,58.53
2022-08-05T06:38:11.501Z,58.39
2022-08-05T06:39:24.583Z,58.60
2022-08-05T06:40:44.269Z,58.81
2022-08-05T06:41:55.023Z,58.84
2022-08-05T06:43:05.264Z,58.83
2022-08-05T06:44:34.129Z,59.14
2022-08-05T06:45:45.136Z,59.03
2022-08-05T06:47:30.100Z,59.19
2022-08-05T06:48:55.279Z,59.19
2022-08-05T06:50:10.974Z,59.33
2022-08-05T06:51:29.915Z,59.49
2022-08-05T06:52:40.288Z,59.39
2022-08-05T06:53:53.599Z,59.23
2022-08-05T06:55:04.396Z,59.13
2022-08-05T06:56:26.498Z,59.32
2022-08-05T06:58:03.493Z,59.42
2022-08-05T06:59:15.659Z,59.28
2022-08-05T07:00:26.501Z,59.31
2022-08-05T07:01:40.732Z,59.50
2022-08-05T07:02:54.774Z,59.59
2022-08-05T07:04:05.585Z,59.45
2022-08-05T07:05:18.920Z,59.31
2022-08-05T07:06:32.277Z,59.52
2022-08-05T07:07:43.752Z,59.33
2022-08-05T07:08:54.867Z,59.37
2022-08-05T07:10:03.383Z,59.24
2022-08-05T07:11:15.217Z,59.48
2022-08-05T07:12:49.110Z,59.65
2022-08-05T07:14:20.426Z,59.65
2022-08-05T07:16:01.236Z,59.91
2022-08-05T07:18:08.643Z,59.92
2022-08-05T07:18:47.664Z,59.76
2022-08-05T07:20:31.644Z,60.01
2022-08-05T07:21:27.758Z,59.94
2022-08-05T07:23:00.514Z,59.65
2022-08-05T07:24:11.139Z,59.73
2022-08-05T07:25:54.392Z,59.73
2022-08-05T07:26:49.400Z,59.68
2022-08-05T07:28:03.906Z,59.71
2022-08-05T07:29:15.595Z,59.90
2022-08-05T07:30:31.058Z,59.87
2022-08-05T07:31:55.102Z,59.84
2022-08-05T07:33:15.946Z,59.76
2022-08-05T07:34:28.673Z,59.98
2022-08-05T07:35:55.602Z,60.25
2022-08-05T07:37:07.875Z,60.54
2022-08-05T07:38:26.401Z,60.66
2022-08-05T07:40:27.111Z,60.56
2022-08-05T07:42:08.073Z,60.50
2022-08-05T07:42:51.912Z,60.32
2022-08-05T07:44:00.705Z,60.30
2022-08-05T07:45:09.505Z,60.48
2022-08-05T07:46:25.420Z,60.59
2022-08-05T07:47:42.302Z,60.60
2022-08-05T07:49:02.384Z,60.66
2022-08-05T07:50:16.678Z,60.75
2022-08-05T07:51:37.174Z,60.78
2022-08-05T07:52:49.718Z,60.67
2022-08-05T07:53:58.314Z,60.87
2022-08-05T07:55:15.804Z,60.93
2022-08-05T07:57:00.644Z,60.91
2022-08-05T07:58:06.056Z,60.82
2022-08-05T07:59:18.262Z,60.87
2022-08-05T08:00:31.927Z,60.84
2022-08-05T08:01:52.009Z,61.02
2022-08-05T08:03:14.229Z,61.03
2022-08-05T08:04:38.166Z,61.00
2022-08-05T08:05:49.758Z,61.18
2022-08-05T08:07:00.353Z,61.24
2022-08-05T08:08:15.936Z,61.32
2022-08-05T08:09:29.510Z,61.32
2022-08-05T08:10:37.234Z,61.42
2022-08-05T08:12:00.238Z,61.64
2022-08-05T08:13:14.744Z,61.73
2022-08-05T08:14:30.807Z,61.61
2022-08-05T08:16:35.277Z,61.60
2022-08-05T08:17:07.604Z,61.63
2022-08-05T08:18:20.831Z,61.67
2022-08-05T08:20:21.965Z,61.61
2022-08-05T08:21:03.912Z,61.72
2022-08-05T08:22:19.711Z,61.59
2022-08-05T08:24:02.441Z,61.55
2022-08-05T08:25:03.301Z,61.70
2022-08-05T08:26:11.324Z,62.13
2022-08-05T08:27:19.389Z,62.32
2022-08-05T08:28:37.243Z,62.39
2022-08-05T08:30:05.880Z,62.35
2022-08-05T08:31:33.009Z,62.40
2022-08-05T08:32:41.882Z,62.26
2022-08-05T08:33:51.555Z,62.16
2022-08-05T08:35:02.068Z,62.22
2022-08-05T08:36:29.479Z,62.27
2022-08-05T08:37:40.594Z,62.40
2022-08-05T08:38:59.383Z,62.56
2022-08-05T08:40:10.790Z,62.57
2022-08-05T08:41:19.380Z,62.56
2022-08-05T08:42:34.361Z,62.71
2022-08-05T08:45:23.002Z,62.64
2022-08-05T08:45:27.143Z,62.44
2022-08-05T08:46:39.725Z,62.24
2022-08-05T08:48:07.730Z,62.16
2022-08-05T08:50:06.121Z,62.44
2022-08-05T08:51:03.492Z,62.31
2022-08-05T08:52:19.496Z,62.48
2022-08-05T08:53:30.310Z,62.55
2022-08-05T08:54:42.259Z,62.55
2022-08-05T08:56:03.788Z,62.77
2022-08-05T08:57:16.425Z,62.73
2022-08-05T08:58:37.480Z,62.80
2022-08-05T08:59:55.991Z,62.80
2022-08-05T09:01:06.442Z,62.73
2022-08-05T09:02:24.342Z,62.66
2022-08-05T09:03:40.553Z,62.46
2022-08-05T09:05:17.917Z,62.39
2022-08-05T09:06:32.354Z,62.31
2022-08-05T09:07:57.129Z,62.36
2022-08-05T09:09:07.475Z,62.44
2022-08-05T09:10:16.761Z,62.51
2022-08-05T09:11:52.505Z,62.85
2022-08-05T09:12:54.027Z,63.02
2022-08-05T09:14:54.574Z,62.86
2022-08-05T09:15:37.311Z,62.81
2022-08-05T09:16:48.653Z,62.73
2022-08-05T09:17:56.760Z,62.72
2022-08-05T09:19:07.184Z,62.64
2022-08-05T09:20:36.216Z,62.59
2022-08-05T09:22:22.777Z,62.46
2022-08-05T09:23:22.388Z,62.38
2022-08-05T09:24:32.546Z,62.45
2022-08-05T09:26:02.703Z,62.35
2022-08-05T09:28:04.107Z,62.34
2022-08-05T09:29:11.670Z,62.51
2022-08-05T09:30:31.007Z,62.84
2022-08-05T09:32:42.046Z,63.05
2022-08-05T09:33:15.375Z,63.01
2022-08-05T09:34:28.814Z,63.05
2022-08-05T09:35:37.410Z,63.00
2022-08-05T09:36:54.701Z,63.07
2022-08-05T09:38:12.984Z,62.93
2022-08-05T09:39:27.817Z,62.79
2022-08-05T09:40:56.161Z,62.79
2022-08-05T09:42:06.502Z,62.85
2022-08-05T09:43:41.667Z,62.72
2022-08-05T09:45:17.946Z,63.06
2022-08-05T09:46:31.239Z,62.69
2022-08-05T09:47:55.130Z,62.78
2022-08-05T09:49:19.686Z,62.99
2022-08-05T09:50:44.634Z,63.16
2022-08-05T09:51:55.025Z,63.13
2022-08-05T09:53:03.514Z,63.04
2022-08-05T09:54:14.186Z,62.92
2022-08-05T09:55:58.062Z,62.91
2022-08-05T09:56:52.297Z,62.66
2022-08-05T09:58:00.382Z,62.78
2022-08-05T09:59:11.304Z,62.70
2022-08-05T10:00:30.644Z,62.90
2022-08-05T10:01:45.843Z,62.71
2022-08-05T10:02:59.046Z,62.75
2022-08-05T10:04:16.010Z,62.96
2022-08-05T10:05:26.955Z,63.15
2022-08-05T10:06:36.518Z,63.20
2022-08-05T10:08:36.791Z,63.19
2022-08-05T10:09:45.229Z,63.02
2022-08-05T10:10:57.527Z,63.21
2022-08-05T10:12:30.269Z,63.10
2022-08-05T10:13:45.799Z,62.86
2022-08-05T10:15:24.099Z,62.91
2022-08-05T10:16:42.068Z,63.02
2022-08-05T10:18:24.445Z,63.37
2022-08-05T10:20:03.246Z,63.20
2022-08-05T10:21:11.784Z,63.36
2022-08-05T10:22:29.737Z,63.45
2022-08-05T10:23:59.008Z,63.48
2022-08-05T10:25:14.244Z,63.54
2022-08-05T10:26:32.462Z,63.56
2022-08-05T10:28:13.857Z,63.71
2022-08-05T10:29:12.394Z,63.79
2022-08-05T10:32:49.510Z,63.85
2022-08-05T10:32:52.444Z,64.05
2022-08-05T10:33:19.608Z,64.14
2022-08-05T10:34:31.221Z,64.24
2022-08-05T10:35:40.506Z,64.13
2022-08-05T10:36:55.017Z,64.22
2022-08-05T10:38:06.017Z,64.28
2022-08-05T10:40:04.215Z,64.34
2022-08-05T10:41:06.566Z,64.28
2022-08-05T10:42:33.454Z,64.36
2022-08-05T10:44:02.283Z,64.55
2022-08-05T10:45:23.711Z,64.59
2022-08-05T10:46:54.448Z,64.45
2022-08-05T10:48:40.663Z,64.50
2022-08-05T10:50:32.398Z,64.59
2022-08-05T10:51:57.690Z,64.66
2022-08-05T10:53:12.401Z,65.08
2022-08-05T10:54:56.456Z,65.08
2022-08-05T10:56:26.895Z,65.01
2022-08-05T10:57:38.689Z,64.91
2022-08-05T10:58:56.195Z,65.00
2022-08-05T11:00:24.415Z,64.98
2022-08-05T11:02:04.874Z,65.07
2022-08-05T11:03:26.006Z,65.03
2022-08-05T11:04:44.007Z,64.79
2022-08-05T11:06:17.609Z,64.87
2022-08-05T11:07:33.247Z,64.91
2022-08-05T11:09:32.344Z,65.07
2022-08-05T11:11:01.457Z,65.07
2022-08-05T11:12:38.389Z,64.99
2022-08-05T11:13:58.143Z,65.16
2022-08-05T11:15:23.613Z,65.17
2022-08-05T11:17:57.948Z,65.12
2022-08-05T11:20:10.047Z,65.11
2022-08-05T11:20:58.218Z,65.28
2022-08-05T11:22:42.663Z,65.25
2022-08-05T11:24:04.787Z,65.06
2022-08-05T11:26:09.052Z,65.05
2022-08-05T11:27:50.925Z,64.91
2022-08-05T11:29:12.196Z,64.82
2022-08-05T11:30:21.947Z,64.74
2022-08-05T11:31:57.290Z,64.71
2022-08-05T11:33:46.041Z,65.04
2022-08-05T11:34:58.519Z,65.32
2022-08-05T11:36:33.924Z,65.29
2022-08-05T11:38:28.187Z,65.38
2022-08-05T11:39:14.595Z,65.21
2022-08-05T11:40:22.856Z,65.00
2022-08-05T11:41:57.877Z,64.88
2022-08-05T11:43:01.966Z,64.80
2022-08-05T11:44:40.159Z,64.94
2022-08-05T11:46:27.170Z,64.92
2022-08-05T11:47:48.545Z,64.94
2022-08-05T11:49:01.908Z,65.00
2022-08-05T11:50:14.145Z,65.09
2022-08-05T11:51:44.829Z,65.18
2022-08-05T11:52:58.552Z,65.22
2022-08-05T11:54:06.634Z,65.06
2022-08-05T11:55:18.275Z,65.00
2022-08-05T11:56:50.404Z,64.81
2022-08-05T11:58:11.012Z,64.80
2022-08-05T11:59:28.255Z,64.80
2022-08-05T12:00:37.984Z,65.03
2022-08-05T12:02:03.502Z,64.72
2022-08-05T12:03:31.564Z,64.74
2022-08-05T12:04:59.356Z,64.88
2022-08-05T12:06:09.809Z,64.98
2022-08-05T12:07:18.985Z,65.16
2022-08-05T12:08:53.855Z,65.20
2022-08-05T12:10:09.429Z,65.20
2022-08-05T12:11:39.859Z,64.87
2022-08-05T12:12:59.843Z,64.84
2022-08-05T12:14:12.707Z,64.66
2022-08-05T12:15:37.974Z,64.59
2022-08-05T12:16:49.571Z,64.60
2022-08-05T12:18:03.709Z,64.46
2022-08-05T12:20:26.825Z,64.48
2022-08-05T12:20:42.443Z,64.62
2022-08-05T12:21:52.792Z,64.76
2022-08-05T12:23:13.839Z,64.87
2022-08-05T12:24:24.744Z,65.02
2022-08-05T12:25:32.833Z,64.96
2022-08-05T12:26:44.551Z,64.88
2022-08-05T12:27:53.191Z,64.85
2022-08-05T12:29:03.538Z,64.83
2022-08-05T12:30:15.480Z,64.70
2022-08-05T12:31:33.684Z,64.59
2022-08-05T12:32:56.410Z,64.73
2022-08-05T12:34:08.657Z,64.68
2022-08-05T12:35:39.416Z,64.90
2022-08-05T12:36:49.601Z,65.13
2022-08-05T12:38:00.589Z,65.30
2022-08-05T12:39:10.818Z,65.20
2022-08-05T12:40:26.482Z,65.11
2022-08-05T12:41:36.119Z,65.02
2022-08-05T12:42:53.644Z,64.95
2022-08-05T12:44:03.304Z,64.88
2022-08-05T12:45:11.109Z,64.75
2022-08-05T12:46:31.562Z,64.69
2022-08-05T12:47:43.291Z,64.68
2022-08-05T12:49:12.998Z,64.84
2022-08-05T12:50:23.411Z,65.06
2022-08-05T12:52:13.746Z,65.23
2022-08-05T12:53:37.131Z,65.23
2022-08-05T12:54:53.650Z,65.20
2022-08-05T12:56:34.460Z,65.12
2022-08-05T12:58:31.237Z,65.03
2022-08-05T13:00:08.879Z,64.91
2022-08-05T13:02:04.443Z,64.90
2022-08-05T13:02:39.880Z,65.01
2022-08-05T13:03:49.087Z,65.25
2022-08-05T13:05:00.082Z,65.28
2022-08-05T13:06:21.908Z,65.40
2022-08-05T13:07:57.337Z,65.35
2022-08-05T13:09:09.570Z,65.20
2022-08-05T13:10:25.861Z,65.12
2022-08-05T13:12:02.943Z,64.86
2022-08-05T13:13:13.178Z,64.83
2022-08-05T13:14:59.129Z,64.71
2022-08-05T13:16:16.759Z,64.68
2022-08-05T13:17:31.957Z,64.88
2022-08-05T13:19:03.065Z,65.09
2022-08-05T13:20:24.611Z,65.22
2022-08-05T13:21:38.079Z,65.30
2022-08-05T13:22:59.837Z,65.10
2022-08-05T13:24:10.071Z,64.95
2022-08-05T13:25:51.202Z,64.82
2022-08-05T13:26:55.871Z,64.77
2022-08-05T13:28:05.822Z,64.68
2022-08-05T13:29:19.063Z,64.54
2022-08-05T13:30:43.853Z,64.49
2022-08-05T13:32:05.024Z,64.55
2022-08-05T13:34:25.160Z,64.44
2022-08-05T13:34:46.025Z,64.55
2022-08-05T13:35:53.933Z,64.71
2022-08-05T13:37:03.476Z,64.62
2022-08-05T13:38:30.312Z,64.61
2022-08-05T13:40:15.890Z,64.42
2022-08-05T13:41:16.804Z,64.17
2022-08-05T13:42:25.778Z,64.19
2022-08-05T13:43:44.331Z,64.03
2022-08-05T13:45:04.341Z,64.03
2022-08-05T13:46:14.372Z,64.02
2022-08-05T13:47:35.101Z,63.90
2022-08-05T13:48:57.635Z,63.93
2022-08-05T13:50:14.785Z,63.88
2022-08-05T13:51:40.014Z,64.25
2022-08-05T13:52:52.973Z,64.42
2022-08-05T13:54:12.519Z,64.39
2022-08-05T13:55:40.758Z,64.32
2022-08-05T13:56:52.716Z,64.27
2022-08-05T13:58:05.716Z,64.14
2022-08-05T13:59:19.461Z,64.04
2022-08-05T14:00:29.691Z,63.97
2022-08-05T14:01:46.617Z,63.92
2022-08-05T14:03:14.694Z,63.87
2022-08-05T14:04:43.672Z,63.93
2022-08-05T14:06:25.265Z,63.95
2022-08-05T14:08:00.111Z,63.80
2022-08-05T14:09:03.487Z,63.72
2022-08-05T14:10:28.758Z,63.43
2022-08-05T14:12:00.340Z,63.22
2022-08-05T14:13:10.413Z,63.33
2022-08-05T14:14:29.648Z,63.28
2022-08-05T14:16:07.160Z,63.22
2022-08-05T14:17:17.694Z,62.94
2022-08-05T14:18:27.364Z,62.67
2022-08-05T14:19:54.550Z,62.31
2022-08-05T14:22:07.827Z,62.10
2022-08-05T14:22:36.298Z,61.86
2022-08-05T14:23:45.328Z,61.71
2022-08-05T14:24:53.808Z,61.50
2022-08-05T14:26:01.621Z,61.28
2022-08-05T14:27:17.838Z,61.20
2022-08-05T14:28:28.186Z,61.06
2022-08-05T14:29:37.734Z,60.72
2022-08-05T14:30:46.412Z,60.62
2022-08-05T14:32:12.168Z,60.47
2022-08-05T14:33:57.091Z,60.42
2022-08-05T14:34:59.560Z,60.09
2022-08-05T14:36:08.283Z,60.02
2022-08-05T14:37:18.546Z,59.72
2022-08-05T14:38:34.463Z,59.44
2022-08-05T14:39:49.401Z,59.26
2022-08-05T14:41:06.370Z,59.15
2022-08-05T14:42:21.100Z,58.87
2022-08-05T14:43:58.883Z,58.71
2022-08-05T14:45:03.084Z,58.53
2022-08-05T14:46:13.263Z,58.18
2022-08-05T14:48:04.145Z,57.69
2022-08-05T14:48:51.347Z,57.24
2022-08-05T14:50:09.009Z,56.95
2022-08-05T14:51:31.098Z,56.55
2022-08-05T14:52:52.321Z,56.55
2022-08-05T14:54:27.602Z,56.24
2022-08-05T14:55:39.377Z,55.52
2022-08-05T14:56:51.917Z,55.00
2022-08-05T14:58:11.828Z,54.61
2022-08-05T14:59:23.711Z,54.19
2022-08-05T15:00:33.471Z,53.96
2022-08-05T15:01:48.430Z,53.44
2022-08-05T15:03:00.675Z,52.87
2022-08-05T15:04:15.147Z,52.43
2022-08-05T15:05:29.599Z,52.24
2022-08-05T15:06:40.800Z,51.00
2022-08-05T15:08:09.094Z,50.75
2022-08-05T15:09:51.388Z,49.92
2022-08-05T15:10:50.079Z,48.70
2022-08-05T15:12:01.847Z,48.76
2022-08-05T15:13:14.645Z,48.33
2022-08-05T15:14:35.794Z,47.89
2022-08-05T15:15:55.468Z,47.48
2022-08-05T15:17:04.164Z,46.49
2022-08-05T15:18:12.666Z,45.66
2022-08-05T15:19:26.550Z,46.02
2022-08-05T15:20:34.171Z,45.94
2022-08-05T15:21:45.172Z,45.45
2022-08-05T15:22:55.173Z,44.69
2022-08-05T15:24:02.779Z,44.66
2022-08-05T15:25:15.119Z,45.23
2022-08-05T15:26:33.094Z,44.44
2022-08-05T15:27:52.016Z,44.44
2022-08-05T15:29:03.681Z,43.30
2022-08-05T15:30:14.177Z,42.69
2022-08-05T15:31:25.027Z,42.42
2022-08-05T15:32:44.526Z,41.73
2022-08-05T15:34:18.811Z,41.65
2022-08-05T15:35:24.133Z,41.64
2022-08-05T15:36:37.431Z,41.22
2022-08-05T15:38:08.401Z,41.07
2022-08-05T15:40:59.023Z,41.01
2022-08-05T15:41:04.532Z,40.34
2022-08-05T15:42:54.460Z,40.18
2022-08-05T15:43:47.003Z,39.50
2022-08-05T15:44:56.878Z,39.07
2022-08-05T15:46:07.500Z,38.62
2022-08-05T15:47:20.771Z,38.08
2022-08-05T15:48:32.589Z,38.08
2022-08-05T15:49:58.816Z,37.95
2022-08-05T15:51:10.071Z,37.54
2022-08-05T15:52:29.474Z,37.83
2022-08-05T15:53:56.260Z,37.57
2022-08-05T15:55:08.069Z,37.89
2022-08-05T15:56:22.039Z,38.04
2022-08-05T15:57:33.041Z,37.94
2022-08-05T15:58:43.555Z,37.80
2022-08-05T15:59:56.643Z,37.66
2022-08-05T16:01:17.399Z,38.06
2022-08-05T16:02:27.763Z,38.60
2022-08-05T16:03:41.109Z,38.74
2022-08-05T16:04:52.498Z,38.53
2022-08-05T16:06:02.514Z,38.10
2022-08-05T16:07:11.018Z,37.63
2022-08-05T16:08:19.388Z,37.27
2022-08-05T16:09:30.551Z,37.22
2022-08-05T16:10:43.947Z,36.89
2022-08-05T16:11:53.188Z,36.70
2022-08-05T16:13:02.571Z,36.90
2022-08-05T16:14:17.112Z,36.75
2022-08-05T16:15:32.417Z,36.70
2022-08-05T16:16:45.460Z,36.60
2022-08-05T16:17:57.859Z,35.92
2022-08-05T16:19:09.747Z,35.72
2022-08-05T16:20:19.780Z,35.63
2022-08-05T16:22:00.835Z,35.36
2022-08-05T16:22:59.533Z,34.91
2022-08-05T16:24:35.839Z,34.81
2022-08-05T16:25:43.085Z,34.73
2022-08-05T16:27:02.139Z,34.46
2022-08-05T16:28:10.924Z,35.00
2022-08-05T16:29:22.875Z,35.38
2022-08-05T16:30:33.340Z,35.58
2022-08-05T16:31:56.798Z,35.71
2022-08-05T16:33:06.378Z,35.65
2022-08-05T16:34:15.621Z,35.40
2022-08-05T16:35:27.676Z,34.84
2022-08-05T16:36:42.778Z,35.01
2022-08-05T16:38:16.198Z,35.25
2022-08-05T16:40:04.112Z,35.29
2022-08-05T16:40:59.724Z,35.35
2022-08-05T16:42:13.787Z,35.37
2022-08-05T16:43:30.606Z,35.10
2022-08-05T16:44:40.264Z,34.84
2022-08-05T16:46:05.963Z,34.52
2022-08-05T16:47:28.919Z,34.81
2022-08-05T16:48:46.405Z,34.77
2022-08-05T16:49:54.761Z,34.52
2022-08-05T16:51:09.203Z,34.22
2022-08-05T16:52:18.724Z,34.33
2022-08-05T16:53:32.053Z,34.43
2022-08-05T16:54:41.291Z,34.33
2022-08-05T16:55:52.461Z,34.23